TAF KSEZ
KSEZ 270524Z 2706/2806 04010G16KT P6SM SCT250 FM271700 VRB03KT P6SM SKC=
METAR KSEZ
WC KSEZ
WS KSEZ
WV KSEZ